Time;durP1;ratioP1;P1;durP2;ratioP2;P2;SDS_P1;SDS_P2;PMS_P1;PMS_P2;Temp;Humidity;BMP_temperature;BMP_pressure;BME280_temperature;BME280_humidity;BME280_pressure;Samples;Min_cycle;Max_cycle;Signal;HPM_P1;HPM_P2
2023/12/28 00:01:26;;;;;;;1.23;1.00;;;21.40;58.80;;;;;;5111647;28;20585;-70
2023/12/28 00:03:51;;;;;;;1.47;1.00;;;21.40;58.80;;;;;;5111779;28;20181;-70
2023/12/28 00:06:17;;;;;;;1.20;1.10;;;21.40;58.80;;;;;;5111805;28;20260;-69
2023/12/28 00:08:43;;;;;;;1.30;1.20;;;21.40;58.80;;;;;;5111735;28;20197;-70
2023/12/28 00:11:08;;;;;;;1.20;1.10;;;21.40;58.80;;;;;;5093454;28;20208;-70
2023/12/28 00:13:34;;;;;;;1.77;1.20;;;21.40;58.80;;;;;;5111427;28;20196;-70
2023/12/28 00:15:59;;;;;;;1.40;1.10;;;21.40;58.80;;;;;;5111445;28;20222;-70
2023/12/28 00:18:25;;;;;;;1.60;1.40;;;21.30;58.70;;;;;;5111333;28;20213;-69
2023/12/28 00:20:51;;;;;;;1.70;1.30;;;21.30;58.70;;;;;;5111525;28;20272;-70
2023/12/28 00:23:17;;;;;;;1.87;1.30;;;21.30;58.70;;;;;;5111303;28;20177;-70
2023/12/28 00:25:43;;;;;;;1.43;1.10;;;21.30;58.70;;;;;;5111195;28;20554;-69
2023/12/28 00:28:08;;;;;;;1.50;1.17;;;21.30;58.70;;;;;;5111206;28;20509;-70
2023/12/28 00:30:34;;;;;;;1.30;1.20;;;21.30;58.80;;;;;;5111192;28;20586;-70
2023/12/28 00:33:00;;;;;;;1.47;1.10;;;21.30;58.80;;;;;;5111115;28;20223;-69
2023/12/28 00:35:25;;;;;;;1.73;1.10;;;21.30;58.80;;;;;;5111079;28;20173;-69
2023/12/28 00:37:51;;;;;;;1.27;1.00;;;21.30;58.80;;;;;;5111126;28;20181;-69
2023/12/28 00:40:17;;;;;;;1.50;1.10;;;21.30;58.80;;;;;;5092882;28;20180;-70
2023/12/28 00:42:42;;;;;;;2.03;1.00;;;21.30;58.80;;;;;;5111033;28;20173;-70
2023/12/28 00:45:09;;;;;;;1.40;1.30;;;21.30;58.80;;;;;;5110929;28;20172;-70
2023/12/28 00:47:35;;;;;;;1.20;1.00;;;21.30;58.80;;;;;;5110869;28;20287;-69
2023/12/28 00:50:00;;;;;;;1.27;1.10;;;21.30;58.80;;;;;;5111149;28;20572;-70
2023/12/28 00:52:26;;;;;;;1.80;1.20;;;21.30;58.80;;;;;;5110772;28;20193;-70
2023/12/28 00:54:52;;;;;;;1.60;1.27;;;21.30;58.80;;;;;;5111177;28;20176;-70
2023/12/28 00:57:17;;;;;;;3.57;1.10;;;21.30;58.80;;;;;;5110765;28;20551;-69
2023/12/28 00:59:43;;;;;;;2.60;1.30;;;21.30;58.80;;;;;;5110920;28;20177;-70
2023/12/28 01:02:09;;;;;;;1.20;1.00;;;21.30;58.80;;;;;;5110822;28;20161;-70
2023/12/28 01:04:35;;;;;;;2.50;1.20;;;21.30;58.80;;;;;;5110828;28;20252;-70
2023/12/28 01:07:02;;;;;;;1.40;1.30;;;21.30;58.80;;;;;;5110929;28;20288;-69
2023/12/28 01:09:28;;;;;;;1.63;1.10;;;21.30;58.80;;;;;;5110743;28;20169;-70
2023/12/28 01:11:54;;;;;;;1.60;1.10;;;21.30;58.80;;;;;;5110579;28;20483;-70
2023/12/28 01:14:20;;;;;;;2.23;1.20;;;21.30;58.80;;;;;;5110716;28;20431;-70
2023/12/28 01:16:45;;;;;;;2.33;1.30;;;21.30;58.80;;;;;;5110385;28;21020;-70
2023/12/28 01:19:11;;;;;;;1.60;1.20;;;21.20;58.80;;;;;;5110624;28;20251;-70
2023/12/28 01:21:37;;;;;;;1.53;1.43;;;21.30;58.80;;;;;;5110587;28;20169;-70
2023/12/28 01:24:02;;;;;;;1.60;1.07;;;21.30;58.80;;;;;;5110533;28;20920;-71
2023/12/28 01:26:28;;;;;;;1.60;1.13;;;21.30;58.80;;;;;;5110594;28;20176;-69
2023/12/28 01:28:54;;;;;;;1.53;1.30;;;21.20;58.80;;;;;;5110338;28;20215;-69
2023/12/28 01:31:19;;;;;;;1.40;1.20;;;21.20;58.80;;;;;;5110548;28;20652;-70
2023/12/28 01:33:45;;;;;;;1.60;1.37;;;21.30;58.90;;;;;;5110349;28;20272;-70
2023/12/28 01:36:21;;;;;;;1.83;1.07;;;21.30;58.90;;;;;;5110789;28;20169;-70
2023/12/28 01:38:47;;;;;;;1.60;1.27;;;21.20;58.80;;;;;;5096319;28;20211;-70
2023/12/28 01:41:13;;;;;;;1.30;0.90;;;21.20;58.80;;;;;;5096196;28;20410;-70
2023/12/28 01:43:39;;;;;;;1.53;1.13;;;21.20;58.80;;;;;;5114365;28;20406;-70
2023/12/28 01:46:15;;;;;;;1.50;0.90;;;21.20;58.80;;;;;;5114347;28;20402;-70
2023/12/28 01:48:42;;;;;;;1.30;1.00;;;21.20;58.80;;;;;;5114520;28;20426;-70
2023/12/28 01:51:08;;;;;;;1.60;1.07;;;21.20;58.80;;;;;;5114406;28;20988;-70
2023/12/28 01:53:34;;;;;;;1.30;1.10;;;21.20;58.80;;;;;;5114290;28;20541;-70
2023/12/28 01:56:00;;;;;;;1.77;1.10;;;21.20;58.80;;;;;;5114261;28;20169;-70
2023/12/28 01:58:28;;;;;;;1.60;1.30;;;21.20;58.80;;;;;;5114115;28;20189;-69
2023/12/28 02:00:56;;;;;;;2.17;1.10;;;21.20;58.80;;;;;;5114182;28;20173;-70
2023/12/28 02:03:22;;;;;;;1.10;1.00;;;21.20;58.80;;;;;;5114039;28;20800;-69
2023/12/28 02:05:48;;;;;;;1.30;1.10;;;21.20;58.80;;;;;;5114066;28;20407;-70
2023/12/28 02:08:13;;;;;;;1.87;1.30;;;21.20;58.80;;;;;;5113864;28;20675;-70
2023/12/28 02:10:39;;;;;;;1.20;0.90;;;21.20;58.80;;;;;;5113886;28;20173;-69
2023/12/28 02:13:05;;;;;;;1.50;1.10;;;21.20;58.80;;;;;;5113673;28;20622;-70
2023/12/28 02:15:30;;;;;;;1.23;1.10;;;21.20;58.80;;;;;;5113720;28;20172;-70
2023/12/28 02:18:12;;;;;;;1.27;1.13;;;21.20;58.80;;;;;;5095199;28;20698;-70
2023/12/28 02:20:39;;;;;;;1.13;1.03;;;21.20;58.80;;;;;;5113754;28;20523;-70
2023/12/28 02:23:06;;;;;;;1.27;1.10;;;21.20;58.80;;;;;;5113818;28;20406;-69
2023/12/28 02:25:32;;;;;;;1.57;1.10;;;21.20;58.80;;;;;;5113458;28;20405;-70
2023/12/28 02:27:58;;;;;;;1.17;1.07;;;21.10;58.70;;;;;;5095236;28;20435;-70
2023/12/28 02:30:24;;;;;;;1.80;1.40;;;21.20;58.90;;;;;;5113485;28;20177;-70
2023/12/28 02:33:15;;;;;;;2.13;1.10;;;21.20;58.80;;;;;;5113454;28;20185;-70
2023/12/28 02:35:50;;;;;;;1.70;1.40;;;21.20;58.80;;;;;;5113369;28;20769;-70
2023/12/28 02:38:16;;;;;;;2.23;1.20;;;21.10;58.80;;;;;;5113491;28;20564;-69
2023/12/28 02:40:46;;;;;;;1.20;0.90;;;21.10;58.80;;;;;;5113320;28;20398;-70
2023/12/28 02:43:12;;;;;;;1.73;1.20;;;21.10;58.80;;;;;;5113536;28;20394;-70
2023/12/28 02:45:39;;;;;;;1.47;1.20;;;21.10;58.80;;;;;;5113195;28;20823;-69
2023/12/28 02:48:05;;;;;;;1.40;1.20;;;21.10;58.80;;;;;;5112728;28;20241;-69
2023/12/28 02:50:32;;;;;;;1.30;1.20;;;21.10;58.80;;;;;;5113078;28;20418;-70
2023/12/28 02:52:58;;;;;;;1.60;1.00;;;21.10;58.80;;;;;;5113206;28;20446;-69
2023/12/28 02:55:24;;;;;;;1.70;1.40;;;21.20;58.80;;;;;;5113016;28;20784;-69
2023/12/28 02:57:50;;;;;;;1.80;1.20;;;21.10;58.80;;;;;;5113204;28;20450;-69
2023/12/28 03:00:16;;;;;;;1.33;1.10;;;21.10;58.80;;;;;;5113158;28;20503;-70
2023/12/28 03:02:42;;;;;;;1.30;1.10;;;21.10;58.80;;;;;;5112854;28;20486;-70
2023/12/28 03:05:08;;;;;;;1.20;1.10;;;21.10;58.80;;;;;;5112864;28;20494;-70
2023/12/28 03:07:34;;;;;;;1.63;1.00;;;21.10;58.80;;;;;;5112965;28;20551;-69
2023/12/28 03:10:01;;;;;;;1.60;0.90;;;21.10;58.80;;;;;;5112870;28;20497;-69
2023/12/28 03:12:27;;;;;;;1.87;1.03;;;21.10;58.80;;;;;;5112909;28;21024;-70
2023/12/28 03:14:53;;;;;;;1.73;1.03;;;21.10;58.80;;;;;;5112657;28;20407;-70
2023/12/28 03:17:18;;;;;;;1.57;1.10;;;21.10;58.80;;;;;;5112468;28;21045;-70
2023/12/28 03:19:44;;;;;;;1.60;1.40;;;21.10;58.80;;;;;;5094284;28;20204;-70
2023/12/28 03:22:10;;;;;;;1.30;1.10;;;21.10;58.80;;;;;;5112634;28;20656;-70
2023/12/28 03:24:37;;;;;;;1.40;1.13;;;21.10;59.30;;;;;;5112554;28;20263;-70
2023/12/28 03:27:06;;;;;;;1.83;1.10;;;21.10;58.80;;;;;;5112561;28;20749;-70
2023/12/28 03:29:32;;;;;;;1.27;1.00;;;21.10;58.80;;;;;;5112600;28;20411;-70
2023/12/28 03:31:58;;;;;;;2.63;1.10;;;21.10;58.80;;;;;;5112345;28;20410;-70
2023/12/28 03:34:26;;;;;;;1.63;1.20;;;21.10;58.80;;;;;;5112224;28;20410;-70
2023/12/28 03:36:52;;;;;;;1.10;0.90;;;21.10;58.80;;;;;;5112212;28;20961;-70
2023/12/28 03:39:17;;;;;;;1.20;1.10;;;21.10;58.80;;;;;;5112183;28;20403;-70
2023/12/28 03:41:43;;;;;;;1.47;0.97;;;21.10;58.80;;;;;;5112493;28;20173;-69
2023/12/28 03:44:08;;;;;;;1.30;1.20;;;21.10;58.80;;;;;;5112204;28;20255;-69
2023/12/28 03:46:34;;;;;;;2.27;1.20;;;21.10;58.80;;;;;;5112025;28;20214;-70
2023/12/28 03:49:00;;;;;;;1.10;0.90;;;21.10;58.80;;;;;;5093610;28;20647;-70
2023/12/28 03:51:26;;;;;;;1.30;1.20;;;21.10;58.80;;;;;;5111976;28;20410;-69
2023/12/28 03:53:51;;;;;;;1.17;1.07;;;21.10;58.80;;;;;;5111847;28;20191;-69
2023/12/28 03:56:27;;;;;;;1.60;1.10;;;21.10;58.80;;;;;;5111834;28;20587;-70
2023/12/28 03:58:54;;;;;;;1.47;1.10;;;21.10;58.80;;;;;;5110895;28;20196;-69
2023/12/28 04:01:22;;;;;;;1.73;1.40;;;21.10;58.80;;;;;;5111735;28;20407;-69
2023/12/28 04:03:48;;;;;;;1.20;1.10;;;21.10;58.80;;;;;;5111791;28;20439;-70
2023/12/28 04:06:15;;;;;;;1.67;1.30;;;21.10;58.80;;;;;;5111714;28;20429;-70
2023/12/28 04:08:41;;;;;;;1.17;0.77;;;21.10;58.80;;;;;;5093182;28;20435;-69
2023/12/28 04:11:07;;;;;;;1.70;1.00;;;21.10;58.80;;;;;;5111485;28;20410;-69
2023/12/28 04:13:33;;;;;;;3.67;1.23;;;21.10;58.80;;;;;;5111431;28;20516;-69
2023/12/28 04:15:58;;;;;;;1.53;1.30;;;21.10;58.80;;;;;;5111539;28;20172;-69
2023/12/28 04:18:24;;;;;;;1.27;1.10;;;21.10;58.80;;;;;;5111448;28;20200;-69
2023/12/28 04:20:50;;;;;;;1.90;1.30;;;21.10;58.80;;;;;;5111494;28;20179;-70
2023/12/28 04:23:15;;;;;;;1.20;1.10;;;21.10;58.80;;;;;;5111601;28;20264;-69
2023/12/28 04:25:41;;;;;;;1.57;1.20;;;21.10;58.80;;;;;;5111420;28;20256;-70
2023/12/28 04:28:07;;;;;;;1.63;1.20;;;21.10;58.80;;;;;;5092790;28;20204;-69
2023/12/28 04:30:33;;;;;;;1.53;1.20;;;21.10;58.80;;;;;;5111439;28;20230;-70
2023/12/28 04:32:59;;;;;;;1.20;1.10;;;21.10;58.80;;;;;;5111144;28;20235;-69
2023/12/28 04:35:25;;;;;;;1.90;1.40;;;21.10;58.80;;;;;;5111195;28;21011;-70
2023/12/28 04:37:50;;;;;;;1.17;1.07;;;21.10;58.80;;;;;;5111040;28;20462;-70
2023/12/28 04:40:17;;;;;;;1.17;1.07;;;21.10;58.80;;;;;;5111226;28;20192;-70
2023/12/28 04:42:42;;;;;;;1.30;0.97;;;21.10;58.80;;;;;;5110951;28;20557;-69
2023/12/28 04:45:09;;;;;;;2.23;1.73;;;21.10;58.80;;;;;;5111070;28;20451;-69
2023/12/28 04:47:35;;;;;;;1.47;1.10;;;21.10;58.80;;;;;;5110789;28;20442;-70
2023/12/28 04:50:02;;;;;;;0.90;0.80;;;21.10;58.80;;;;;;5111022;28;20403;-70
2023/12/28 04:52:28;;;;;;;1.37;1.20;;;21.10;58.80;;;;;;5110812;28;21058;-70
2023/12/28 04:54:53;;;;;;;1.43;1.10;;;21.10;58.80;;;;;;5092564;28;20407;-69
2023/12/28 04:57:19;;;;;;;1.77;1.30;;;21.10;58.80;;;;;;5110812;28;21045;-70
2023/12/28 04:59:45;;;;;;;2.10;1.20;;;21.10;58.80;;;;;;5110849;28;20165;-68
2023/12/28 05:02:10;;;;;;;1.40;1.00;;;21.10;58.80;;;;;;5110738;28;20543;-69
2023/12/28 05:04:39;;;;;;;1.50;1.40;;;21.10;58.80;;;;;;5110704;28;20290;-69
2023/12/28 05:07:04;;;;;;;1.27;1.03;;;21.10;58.80;;;;;;5110667;28;20260;-69
2023/12/28 05:09:31;;;;;;;3.10;1.10;;;21.10;58.80;;;;;;5110667;28;21179;-70
2023/12/28 05:11:56;;;;;;;1.23;1.00;;;21.10;58.70;;;;;;5110432;28;20314;-70
2023/12/28 05:14:22;;;;;;;1.33;1.07;;;21.10;58.70;;;;;;5092338;28;20497;-70
2023/12/28 05:16:48;;;;;;;1.20;0.87;;;21.10;58.70;;;;;;5110507;28;20176;-70
2023/12/28 05:19:13;;;;;;;1.17;0.90;;;21.10;58.70;;;;;;5110590;28;20631;-69
2023/12/28 05:21:39;;;;;;;1.30;1.17;;;21.10;58.70;;;;;;5110802;28;20201;-70
2023/12/28 05:24:05;;;;;;;1.20;1.00;;;21.10;58.80;;;;;;5110480;28;20643;-70
2023/12/28 05:26:31;;;;;;;1.37;1.23;;;21.10;58.70;;;;;;5110407;28;20222;-69
2023/12/28 05:28:56;;;;;;;1.17;1.07;;;21.10;59.30;;;;;;5110396;28;20256;-70
2023/12/28 05:31:22;;;;;;;1.33;1.20;;;21.10;58.70;;;;;;5092283;28;20189;-70
2023/12/28 05:33:47;;;;;;;1.47;1.10;;;21.10;58.70;;;;;;5110370;28;20216;-69
2023/12/28 05:36:13;;;;;;;1.63;1.17;;;21.10;58.70;;;;;;5110453;28;20661;-70
2023/12/28 05:38:38;;;;;;;1.40;1.10;;;21.10;58.70;;;;;;5110599;28;20181;-69
2023/12/28 05:41:04;;;;;;;1.53;1.00;;;21.10;58.70;;;;;;5110378;28;20188;-69
2023/12/28 05:43:30;;;;;;;1.30;0.90;;;21.10;58.70;;;;;;5110261;28;20181;-69
2023/12/28 05:45:55;;;;;;;1.60;0.90;;;21.10;58.70;;;;;;5110209;28;20600;-70
2023/12/28 05:48:21;;;;;;;1.50;0.93;;;21.10;58.70;;;;;;5110232;28;20561;-69
2023/12/28 05:50:47;;;;;;;1.50;1.20;;;21.10;58.70;;;;;;5091819;28;20183;-70
2023/12/28 05:53:14;;;;;;;1.47;1.17;;;21.10;58.70;;;;;;5110153;28;20715;-70
2023/12/28 05:55:43;;;;;;;1.30;1.00;;;21.10;58.70;;;;;;5091807;28;20205;-69
2023/12/28 05:58:09;;;;;;;1.07;0.80;;;21.10;58.60;;;;;;5091652;28;20454;-70
2023/12/28 06:00:36;;;;;;;1.30;1.00;;;21.10;58.70;;;;;;5110129;28;20417;-69
2023/12/28 06:03:02;;;;;;;1.87;1.30;;;21.10;58.60;;;;;;5091830;28;20419;-70
2023/12/28 06:05:28;;;;;;;1.10;1.00;;;21.10;58.70;;;;;;5074894;28;20502;-70
2023/12/28 06:07:53;;;;;;;1.87;1.33;;;21.10;58.60;;;;;;5091582;28;20519;-70
2023/12/28 06:10:19;;;;;;;1.13;1.03;;;21.10;58.70;;;;;;5110291;28;20204;-70
2023/12/28 06:12:45;;;;;;;1.57;1.07;;;21.10;58.70;;;;;;5075229;28;20679;-69
2023/12/28 06:15:11;;;;;;;1.00;0.80;;;21.10;58.60;;;;;;5091691;28;20410;-70
2023/12/28 06:17:36;;;;;;;1.87;1.00;;;21.10;58.60;;;;;;5109690;28;20212;-70
2023/12/28 06:20:02;;;;;;;2.20;1.00;;;21.10;58.60;;;;;;5091998;28;20263;-70
2023/12/28 06:22:28;;;;;;;1.07;0.83;;;21.10;58.60;;;;;;5092444;28;20177;-70
2023/12/28 06:24:55;;;;;;;1.10;0.90;;;21.10;58.70;;;;;;5095052;28;20215;-70
2023/12/28 06:27:21;;;;;;;1.47;1.00;;;21.10;58.70;;;;;;5113419;28;20338;-70
2023/12/28 06:29:46;;;;;;;1.53;1.00;;;21.10;58.70;;;;;;5095179;28;20410;-70
2023/12/28 06:32:12;;;;;;;1.03;0.90;;;21.10;58.70;;;;;;5113655;28;20981;-70
2023/12/28 06:34:37;;;;;;;1.20;0.90;;;21.10;58.70;;;;;;5113648;28;20188;-70
2023/12/28 06:37:03;;;;;;;2.00;0.90;;;21.10;58.70;;;;;;5095013;28;20188;-70
2023/12/28 06:39:29;;;;;;;1.03;0.80;;;21.10;58.70;;;;;;5095082;28;20246;-70
2023/12/28 06:41:54;;;;;;;1.83;1.00;;;21.20;58.70;;;;;;5113202;28;20169;-69
2023/12/28 06:44:20;;;;;;;1.97;1.10;;;21.20;58.80;;;;;;5095048;28;20185;-70
2023/12/28 06:46:46;;;;;;;1.10;0.80;;;21.20;58.70;;;;;;5094735;28;20181;-70
2023/12/28 06:49:11;;;;;;;1.20;0.90;;;21.20;58.70;;;;;;5094637;28;20300;-69
2023/12/28 06:51:37;;;;;;;1.40;1.00;;;21.20;58.70;;;;;;5077998;28;20185;-68
2023/12/28 06:54:03;;;;;;;1.40;1.00;;;21.20;58.70;;;;;;5077782;28;20620;-69
2023/12/28 06:56:29;;;;;;;1.10;0.87;;;21.20;58.70;;;;;;5112921;28;20403;-69
2023/12/28 06:58:54;;;;;;;1.00;0.80;;;21.30;58.70;;;;;;5078006;28;20242;-68
2023/12/28 07:01:20;;;;;;;1.10;0.97;;;21.30;58.80;;;;;;5112855;28;20161;-69
2023/12/28 07:03:46;;;;;;;1.10;1.00;;;21.30;58.80;;;;;;5112614;28;20184;-69
2023/12/28 07:06:13;;;;;;;1.93;1.20;;;21.30;58.80;;;;;;5112740;28;20181;-69
2023/12/28 07:08:39;;;;;;;1.80;1.07;;;21.30;58.80;;;;;;5112815;28;20242;-69
2023/12/28 07:11:05;;;;;;;1.30;0.90;;;21.30;58.80;;;;;;5112652;28;20925;-69
2023/12/28 07:13:30;;;;;;;1.30;1.20;;;21.30;58.80;;;;;;5112594;28;20184;-69
2023/12/28 07:15:56;;;;;;;1.03;0.87;;;21.30;58.80;;;;;;5112535;28;20165;-69
2023/12/28 07:18:22;;;;;;;1.53;0.90;;;21.30;58.70;;;;;;5112482;28;20211;-69
2023/12/28 07:20:48;;;;;;;1.00;0.80;;;21.30;58.70;;;;;;5112482;28;20173;-70
2023/12/28 07:23:14;;;;;;;1.20;0.90;;;21.30;58.80;;;;;;5112337;28;20165;-70
2023/12/28 07:25:40;;;;;;;1.33;0.90;;;21.30;58.70;;;;;;5112448;28;20741;-69
2023/12/28 07:28:05;;;;;;;1.40;0.90;;;21.30;58.70;;;;;;5112201;28;20427;-69
2023/12/28 07:30:31;;;;;;;1.37;1.10;;;21.30;58.70;;;;;;5112358;28;20214;-69
2023/12/28 07:32:57;;;;;;;1.10;0.80;;;21.30;58.70;;;;;;5110518;28;20667;-70
2023/12/28 07:35:23;;;;;;;1.10;1.00;;;21.30;58.70;;;;;;5110900;28;20260;-69
2023/12/28 07:37:49;;;;;;;3.13;1.00;;;21.30;58.70;;;;;;5112048;28;20430;-69
2023/12/28 07:40:15;;;;;;;1.53;1.10;;;21.30;58.70;;;;;;5112086;28;20169;-70
2023/12/28 07:42:40;;;;;;;1.20;0.83;;;21.30;58.70;;;;;;5117492;27;20786;-69
2023/12/28 07:45:06;;;;;;;2.27;1.10;;;21.30;58.70;;;;;;5132120;27;20172;-70
2023/12/28 07:47:33;;;;;;;1.20;1.00;;;21.30;58.70;;;;;;5132117;27;20211;-70
2023/12/28 07:49:59;;;;;;;1.47;1.10;;;21.30;58.70;;;;;;5132066;27;20412;-68
2023/12/28 07:52:25;;;;;;;2.40;1.00;;;21.30;58.70;;;;;;5132088;27;21111;-69
2023/12/28 07:54:50;;;;;;;1.70;1.20;;;21.30;58.70;;;;;;5131975;27;20456;-70
2023/12/28 07:57:16;;;;;;;3.47;1.30;;;21.30;58.70;;;;;;5113158;27;20576;-70
2023/12/28 07:59:41;;;;;;;2.33;1.13;;;21.30;58.70;;;;;;5131826;27;20235;-70
2023/12/28 08:02:08;;;;;;;4.20;1.37;;;21.30;58.70;;;;;;5131884;27;20521;-68
2023/12/28 08:04:33;;;;;;;1.60;1.30;;;21.30;58.70;;;;;;5131628;27;20160;-70
2023/12/28 08:06:59;;;;;;;1.93;1.10;;;21.30;58.80;;;;;;5131603;27;20499;-70
2023/12/28 08:09:25;;;;;;;1.73;1.30;;;21.30;58.80;;;;;;5132107;27;20221;-70
2023/12/28 08:11:50;;;;;;;1.80;0.97;;;21.30;58.80;;;;;;5132164;27;20164;-70
2023/12/28 08:14:16;;;;;;;4.80;1.40;;;21.30;58.80;;;;;;5131876;27;20195;-70
2023/12/28 08:16:41;;;;;;;1.63;1.13;;;21.30;58.80;;;;;;5131726;27;20255;-70
2023/12/28 08:19:07;;;;;;;2.10;1.00;;;21.30;58.80;;;;;;5132049;27;20544;-70
2023/12/28 08:21:33;;;;;;;1.33;1.10;;;21.30;58.80;;;;;;5128323;27;20177;-70
2023/12/28 08:23:58;;;;;;;4.00;1.23;;;21.30;58.80;;;;;;5121151;27;20661;-69
2023/12/28 08:26:24;;;;;;;2.03;1.03;;;21.30;58.80;;;;;;5130200;27;20651;-70
2023/12/28 08:28:49;;;;;;;2.03;0.93;;;21.30;58.80;;;;;;5129962;27;20214;-70
2023/12/28 08:31:15;;;;;;;2.23;1.00;;;21.30;58.80;;;;;;5130169;27;20184;-70
2023/12/28 08:33:41;;;;;;;1.40;1.03;;;21.30;58.90;;;;;;5131049;27;20268;-69
2023/12/28 08:36:07;;;;;;;4.50;1.20;;;21.30;58.90;;;;;;5130382;27;20164;-69
2023/12/28 08:38:33;;;;;;;2.20;1.17;;;21.30;58.80;;;;;;5112403;27;20283;-69
2023/12/28 08:40:59;;;;;;;4.00;2.27;;;21.30;59.40;;;;;;5131671;27;21004;-70
2023/12/28 08:43:24;;;;;;;2.80;2.13;;;21.30;58.90;;;;;;5114357;27;20526;-69
2023/12/28 08:45:50;;;;;;;3.57;2.10;;;21.30;58.80;;;;;;5131951;27;20229;-69
2023/12/28 08:48:15;;;;;;;5.33;1.90;;;21.30;58.90;;;;;;5132288;27;20192;-69
2023/12/28 08:50:41;;;;;;;2.57;2.13;;;21.30;58.90;;;;;;5132104;27;20915;-70
2023/12/28 08:53:07;;;;;;;3.73;2.27;;;21.30;58.90;;;;;;5096515;27;20200;-69
2023/12/28 08:55:33;;;;;;;3.20;2.13;;;21.30;58.90;;;;;;5113826;27;20335;-69
2023/12/28 08:57:59;;;;;;;5.17;3.70;;;21.30;58.90;;;;;;5132871;27;20246;-68
2023/12/28 09:00:25;;;;;;;5.00;3.37;;;21.30;58.80;;;;;;5131803;27;20437;-70
2023/12/28 09:02:51;;;;;;;3.80;3.40;;;21.30;58.80;;;;;;5131891;27;20176;-69
2023/12/28 09:05:17;;;;;;;4.50;3.67;;;21.30;58.80;;;;;;5131956;27;20183;-69
2023/12/28 09:07:43;;;;;;;6.20;3.97;;;21.30;58.80;;;;;;5131942;27;20425;-69
2023/12/28 09:10:12;;;;;;;4.57;3.57;;;21.30;58.90;;;;;;5132239;27;20823;-69
2023/12/28 09:12:40;;;;;;;6.40;4.13;;;21.30;58.80;;;;;;5131650;27;20235;-69
2023/12/28 09:15:06;;;;;;;5.13;3.50;;;21.30;58.80;;;;;;5111744;28;20418;-69
2023/12/28 09:17:32;;;;;;;3.97;2.70;;;21.30;58.80;;;;;;5111966;28;20476;-69
2023/12/28 09:19:58;;;;;;;4.07;3.03;;;21.30;58.80;;;;;;5130620;28;20445;-70
2023/12/28 09:22:24;;;;;;;6.23;3.20;;;21.30;58.80;;;;;;5129771;28;20646;-70
2023/12/28 09:24:50;;;;;;;4.60;3.20;;;21.30;58.80;;;;;;5112102;28;20188;-70
2023/12/28 09:27:16;;;;;;;4.83;3.20;;;21.30;58.80;;;;;;5130676;28;20421;-69
2023/12/28 09:29:41;;;;;;;4.40;3.30;;;21.30;58.80;;;;;;5131305;28;20432;-69
2023/12/28 09:32:07;;;;;;;7.27;3.70;;;21.30;58.80;;;;;;5131342;28;20190;-68
2023/12/28 09:34:33;;;;;;;6.53;4.20;;;21.30;58.80;;;;;;5122977;28;20177;-69
2023/12/28 09:36:58;;;;;;;5.73;3.83;;;21.30;58.80;;;;;;5116886;28;20238;-68
2023/12/28 09:39:24;;;;;;;4.00;2.70;;;21.30;58.80;;;;;;5109613;28;20177;-69
2023/12/28 09:41:59;;;;;;;4.77;3.07;;;21.30;59.40;;;;;;5110145;28;20643;-68
2023/12/28 09:44:25;;;;;;;6.30;3.63;;;21.30;58.80;;;;;;5110676;28;20811;-69
2023/12/28 09:46:53;;;;;;;4.13;3.27;;;21.30;58.80;;;;;;5110681;28;20960;-68
2023/12/28 09:49:21;;;;;;;4.30;3.00;;;21.30;58.80;;;;;;5111354;28;20407;-69
2023/12/28 09:51:47;;;;;;;9.27;3.17;;;21.30;58.80;;;;;;5111990;28;20411;-69
2023/12/28 09:54:13;;;;;;;5.23;2.83;;;21.30;58.90;;;;;;5111418;28;20442;-68
2023/12/28 09:56:40;;;;;;;5.10;3.37;;;21.30;58.90;;;;;;5111782;28;20422;-68
2023/12/28 09:59:07;;;;;;;4.30;3.00;;;21.30;58.90;;;;;;5114921;28;20176;-70
2023/12/28 10:01:34;;;;;;;5.50;3.10;;;21.30;58.90;;;;;;5114419;28;20936;-67
2023/12/28 10:03:59;;;;;;;6.97;3.00;;;21.30;59.40;;;;;;5115246;28;20906;-68
2023/12/28 10:06:26;;;;;;;7.30;3.60;;;21.30;58.90;;;;;;5114367;28;20517;-69
2023/12/28 10:08:51;;;;;;;5.00;3.20;;;21.30;58.90;;;;;;5114170;28;20245;-69
2023/12/28 10:11:18;;;;;;;4.93;3.10;;;21.30;58.90;;;;;;5095529;28;20984;-68
2023/12/28 10:13:44;;;;;;;8.43;3.37;;;21.30;58.80;;;;;;5114510;28;20253;-69
2023/12/28 10:16:11;;;;;;;7.50;2.97;;;21.30;58.90;;;;;;5113550;28;20411;-69
2023/12/28 10:18:42;;;;;;;4.27;3.00;;;21.30;58.90;;;;;;5114261;28;20447;-69
2023/12/28 10:21:08;;;;;;;5.40;3.00;;;21.30;58.90;;;;;;5114109;28;20842;-69
2023/12/28 10:23:34;;;;;;;7.50;3.23;;;21.30;58.80;;;;;;5113816;28;20421;-69
2023/12/28 10:26:01;;;;;;;3.70;2.47;;;21.30;58.90;;;;;;5114347;28;20622;-69
2023/12/28 10:28:27;;;;;;;5.33;2.80;;;21.30;58.80;;;;;;5113879;28;20513;-68
2023/12/28 10:30:56;;;;;;;7.63;2.93;;;21.30;59.00;;;;;;5114800;28;20509;-68
2023/12/28 10:33:22;;;;;;;5.20;3.23;;;21.30;58.90;;;;;;5097563;28;20278;-69
2023/12/28 10:35:50;;;;;;;4.10;2.63;;;21.30;58.90;;;;;;5115949;28;20403;-68
2023/12/28 10:38:17;;;;;;;5.50;4.10;;;21.30;58.80;;;;;;5115510;28;20429;-69
2023/12/28 10:40:46;;;;;;;5.37;3.30;;;21.30;58.80;;;;;;5115775;28;20406;-69
2023/12/28 10:43:16;;;;;;;5.07;3.17;;;21.30;58.90;;;;;;5116314;28;20448;-69
2023/12/28 10:45:45;;;;;;;5.80;2.87;;;21.30;59.00;;;;;;5116502;28;20438;-68
2023/12/28 10:48:12;;;;;;;4.73;2.70;;;21.30;59.00;;;;;;5115720;28;20458;-69
2023/12/28 10:50:44;;;;;;;3.50;2.87;;;21.30;59.00;;;;;;5113273;28;20422;-68
2023/12/28 10:53:34;;;;;;;3.67;2.80;;;21.30;58.90;;;;;;5113078;28;20466;-68
2023/12/28 10:56:13;;;;;;;3.77;2.50;;;21.30;59.50;;;;;;5113196;28;20399;-69
2023/12/28 10:59:14;;;;;;;6.07;3.20;;;21.30;59.00;;;;;;5114468;28;20422;-73
2023/12/28 11:01:41;;;;;;;5.50;2.90;;;21.30;59.00;;;;;;5031253;28;20525;-70
2023/12/28 11:04:16;;;;;;;6.60;3.10;;;21.20;59.00;;;;;;5102605;28;20419;-68
2023/12/28 11:06:43;;;;;;;6.73;3.20;;;21.20;59.20;;;;;;5113998;28;20395;-69
2023/12/28 11:09:10;;;;;;;2.87;2.57;;;21.20;59.10;;;;;;5095523;28;20415;-69
2023/12/28 11:11:37;;;;;;;5.30;2.93;;;21.20;59.00;;;;;;5113813;28;20913;-68
2023/12/28 11:14:04;;;;;;;6.87;3.60;;;21.20;59.00;;;;;;5113919;28;20906;-69
2023/12/28 11:16:32;;;;;;;4.37;2.73;;;21.20;59.00;;;;;;5113963;28;20419;-69
2023/12/28 11:18:58;;;;;;;3.73;2.50;;;21.20;59.00;;;;;;5114449;28;20395;-69
2023/12/28 11:21:24;;;;;;;5.93;2.90;;;21.20;59.00;;;;;;5113813;28;20796;-68
2023/12/28 11:23:50;;;;;;;5.13;3.13;;;21.20;58.90;;;;;;5113825;28;20422;-68
2023/12/28 11:26:18;;;;;;;5.80;3.30;;;21.20;58.90;;;;;;5114274;28;21027;-69
2023/12/28 11:28:44;;;;;;;7.60;2.63;;;21.20;58.90;;;;;;5113587;28;20292;-69
2023/12/28 11:31:13;;;;;;;4.10;2.50;;;21.20;58.90;;;;;;5113901;28;20861;-68
2023/12/28 11:33:51;;;;;;;5.20;3.33;;;21.20;58.90;;;;;;5113683;28;20655;-68
2023/12/28 11:36:33;;;;;;;2.50;2.20;;;21.20;58.90;;;;;;5113774;28;20395;-68
2023/12/28 11:39:04;;;;;;;3.90;2.90;;;21.20;58.90;;;;;;5112764;28;20399;-68
2023/12/28 11:41:35;;;;;;;4.07;2.87;;;21.20;58.90;;;;;;5113523;28;20441;-69
2023/12/28 11:44:07;;;;;;;3.67;2.77;;;21.20;58.90;;;;;;5113513;28;20419;-68
2023/12/28 11:46:34;;;;;;;4.43;2.63;;;21.20;58.90;;;;;;5113401;28;20414;-68
2023/12/28 11:49:05;;;;;;;2.97;2.40;;;21.20;58.90;;;;;;5113514;28;20411;-69
2023/12/28 11:51:31;;;;;;;4.03;2.67;;;21.30;59.00;;;;;;5113560;28;20438;-68
2023/12/28 11:53:58;;;;;;;3.53;2.80;;;21.20;58.90;;;;;;5113229;28;20450;-69
2023/12/28 11:56:25;;;;;;;4.30;2.90;;;21.20;58.80;;;;;;5113792;28;20494;-69
2023/12/28 11:58:51;;;;;;;3.30;2.63;;;21.20;58.90;;;;;;5113459;28;20933;-69
2023/12/28 12:01:17;;;;;;;4.57;2.60;;;21.20;58.90;;;;;;5113182;28;20419;-69
2023/12/28 12:03:43;;;;;;;3.10;2.17;;;21.20;58.80;;;;;;5113064;28;20179;-68
2023/12/28 12:06:08;;;;;;;4.87;2.90;;;21.20;58.80;;;;;;5113325;28;20174;-69
2023/12/28 12:08:35;;;;;;;4.23;2.37;;;21.20;58.80;;;;;;5113147;28;20434;-69
2023/12/28 12:11:09;;;;;;;4.77;2.40;;;21.20;58.80;;;;;;5112844;28;20734;-70
2023/12/28 12:13:36;;;;;;;2.80;2.27;;;21.20;58.80;;;;;;5113331;28;20821;-69
2023/12/28 12:16:05;;;;;;;3.97;2.63;;;21.20;58.90;;;;;;5095223;28;20427;-68
2023/12/28 12:18:34;;;;;;;3.27;2.97;;;21.20;58.80;;;;;;5112948;28;20474;-69
2023/12/28 12:21:00;;;;;;;3.23;2.00;;;21.20;58.80;;;;;;5113018;28;20901;-69
2023/12/28 12:23:26;;;;;;;4.50;3.47;;;21.20;58.90;;;;;;5113224;28;20410;-69
2023/12/28 12:25:52;;;;;;;3.93;2.83;;;21.20;58.80;;;;;;5113581;28;20483;-69
2023/12/28 12:28:18;;;;;;;3.70;2.60;;;21.20;58.90;;;;;;5113059;28;20203;-69
2023/12/28 12:30:55;;;;;;;4.07;2.70;;;21.20;58.80;;;;;;5113229;28;20199;-69
2023/12/28 12:33:23;;;;;;;3.23;2.47;;;21.20;58.80;;;;;;5113057;28;20442;-68
2023/12/28 12:35:49;;;;;;;3.20;2.30;;;21.20;58.90;;;;;;5113303;28;20399;-68
2023/12/28 12:38:16;;;;;;;4.17;2.50;;;21.20;58.90;;;;;;5113076;28;20936;-69
2023/12/28 12:40:41;;;;;;;4.50;2.77;;;21.20;58.90;;;;;;5112948;28;20468;-69
2023/12/28 12:43:10;;;;;;;4.00;2.50;;;21.20;58.80;;;;;;5112726;28;20991;-69
2023/12/28 12:45:36;;;;;;;2.87;2.47;;;21.20;58.90;;;;;;5112621;28;20600;-69